sensor_id;sensor_type;location;lat;lon;timestamp;temperature;humidity
54264;DHT22;40178;53.042;6.406;2022-09-01T00:02:11;13.30;35.80
54264;DHT22;40178;53.042;6.406;2022-09-01T00:04:42;13.30;28.20
54264;DHT22;40178;53.042;6.406;2022-09-01T00:07:09;13.20;28.20
54264;DHT22;40178;53.042;6.406;2022-09-01T00:09:36;13.20;35.50
54264;DHT22;40178;53.042;6.406;2022-09-01T00:12:02;13.20;38.60
54264;DHT22;40178;53.042;6.406;2022-09-01T00:14:31;13.20;44.90
54264;DHT22;40178;53.042;6.406;2022-09-01T00:17:03;13.10;35.20
54264;DHT22;40178;53.042;6.406;2022-09-01T00:19:30;13.00;37.70
54264;DHT22;40178;53.042;6.406;2022-09-01T00:21:57;13.00;38.50
54264;DHT22;40178;53.042;6.406;2022-09-01T00:24:23;12.90;36.40
54264;DHT22;40178;53.042;6.406;2022-09-01T00:26:50;12.90;38.00
54264;DHT22;40178;53.042;6.406;2022-09-01T00:29:16;12.90;44.40
54264;DHT22;40178;53.042;6.406;2022-09-01T00:31:42;12.90;37.50
54264;DHT22;40178;53.042;6.406;2022-09-01T00:34:08;12.80;37.60
54264;DHT22;40178;53.042;6.406;2022-09-01T00:36:34;12.80;38.50
54264;DHT22;40178;53.042;6.406;2022-09-01T00:39:01;12.80;34.20
54264;DHT22;40178;53.042;6.406;2022-09-01T00:41:29;12.90;34.00
54264;DHT22;40178;53.042;6.406;2022-09-01T00:44:01;12.80;31.90
54264;DHT22;40178;53.042;6.406;2022-09-01T00:46:30;12.80;33.80
54264;DHT22;40178;53.042;6.406;2022-09-01T00:49:10;12.80;34.50
54264;DHT22;40178;53.042;6.406;2022-09-01T00:51:38;12.80;36.60
54264;DHT22;40178;53.042;6.406;2022-09-01T00:54:08;12.70;39.20
54264;DHT22;40178;53.042;6.406;2022-09-01T00:56:38;12.80;50.40
54264;DHT22;40178;53.042;6.406;2022-09-01T00:59:06;12.80;41.60
54264;DHT22;40178;53.042;6.406;2022-09-01T01:01:33;12.70;37.20
54264;DHT22;40178;53.042;6.406;2022-09-01T01:04:02;12.70;33.40
54264;DHT22;40178;53.042;6.406;2022-09-01T01:06:28;12.70;26.00
54264;DHT22;40178;53.042;6.406;2022-09-01T01:08:58;12.70;32.30
54264;DHT22;40178;53.042;6.406;2022-09-01T01:11:27;12.70;25.60
54264;DHT22;40178;53.042;6.406;2022-09-01T01:14:03;12.60;23.90
54264;DHT22;40178;53.042;6.406;2022-09-01T01:16:44;12.60;21.90
54264;DHT22;40178;53.042;6.406;2022-09-01T01:19:22;12.60;32.70
54264;DHT22;40178;53.042;6.406;2022-09-01T01:22:13;12.60;25.20
54264;DHT22;40178;53.042;6.406;2022-09-01T01:25:01;12.50;22.50
54264;DHT22;40178;53.042;6.406;2022-09-01T01:27:31;12.50;27.50
54264;DHT22;40178;53.042;6.406;2022-09-01T01:30:00;12.50;28.50
54264;DHT22;40178;53.042;6.406;2022-09-01T01:32:27;12.50;22.40
54264;DHT22;40178;53.042;6.406;2022-09-01T01:34:54;12.40;21.70
54264;DHT22;40178;53.042;6.406;2022-09-01T01:37:21;12.40;20.40
54264;DHT22;40178;53.042;6.406;2022-09-01T01:39:50;12.40;26.30
54264;DHT22;40178;53.042;6.406;2022-09-01T01:42:16;12.40;22.70
54264;DHT22;40178;53.042;6.406;2022-09-01T01:44:42;12.40;21.20
54264;DHT22;40178;53.042;6.406;2022-09-01T01:47:11;12.40;20.00
54264;DHT22;40178;53.042;6.406;2022-09-01T01:49:38;12.40;34.30
54264;DHT22;40178;53.042;6.406;2022-09-01T01:52:08;12.40;34.60
54264;DHT22;40178;53.042;6.406;2022-09-01T01:54:34;12.30;25.60
54264;DHT22;40178;53.042;6.406;2022-09-01T01:57:00;12.30;22.00
54264;DHT22;40178;53.042;6.406;2022-09-01T01:59:28;12.30;19.00
54264;DHT22;40178;53.042;6.406;2022-09-01T02:01:54;12.30;19.00
54264;DHT22;40178;53.042;6.406;2022-09-01T02:04:21;12.30;19.30
54264;DHT22;40178;53.042;6.406;2022-09-01T02:06:48;12.30;17.60
54264;DHT22;40178;53.042;6.406;2022-09-01T02:09:19;12.20;33.90
54264;DHT22;40178;53.042;6.406;2022-09-01T02:11:45;12.30;23.20
54264;DHT22;40178;53.042;6.406;2022-09-01T02:14:11;12.20;18.70
54264;DHT22;40178;53.042;6.406;2022-09-01T02:16:38;12.20;20.20
54264;DHT22;40178;53.042;6.406;2022-09-01T02:19:05;12.20;33.20
54264;DHT22;40178;53.042;6.406;2022-09-01T02:21:31;12.10;29.00
54264;DHT22;40178;53.042;6.406;2022-09-01T02:24:04;12.10;34.50
54264;DHT22;40178;53.042;6.406;2022-09-01T02:26:37;12.20;35.70
54264;DHT22;40178;53.042;6.406;2022-09-01T02:29:07;12.10;23.90
54264;DHT22;40178;53.042;6.406;2022-09-01T02:31:35;12.10;26.00
54264;DHT22;40178;53.042;6.406;2022-09-01T02:34:04;12.10;20.60
54264;DHT22;40178;53.042;6.406;2022-09-01T02:36:30;12.10;36.00
54264;DHT22;40178;53.042;6.406;2022-09-01T02:39:09;12.10;27.10
54264;DHT22;40178;53.042;6.406;2022-09-01T02:41:35;12.20;27.40
54264;DHT22;40178;53.042;6.406;2022-09-01T02:44:03;12.10;26.80
54264;DHT22;40178;53.042;6.406;2022-09-01T02:46:37;12.00;32.30
54264;DHT22;40178;53.042;6.406;2022-09-01T02:49:10;12.20;24.90
54264;DHT22;40178;53.042;6.406;2022-09-01T02:51:41;12.00;19.50
54264;DHT22;40178;53.042;6.406;2022-09-01T02:54:07;12.00;16.70
54264;DHT22;40178;53.042;6.406;2022-09-01T02:56:33;12.00;16.20
54264;DHT22;40178;53.042;6.406;2022-09-01T02:58:59;12.00;17.60
54264;DHT22;40178;53.042;6.406;2022-09-01T03:01:29;12.00;17.00
54264;DHT22;40178;53.042;6.406;2022-09-01T03:04:03;12.00;17.20
54264;DHT22;40178;53.042;6.406;2022-09-01T03:06:30;12.00;16.70
54264;DHT22;40178;53.042;6.406;2022-09-01T03:08:59;12.00;15.60
54264;DHT22;40178;53.042;6.406;2022-09-01T03:11:27;12.00;15.50
54264;DHT22;40178;53.042;6.406;2022-09-01T03:13:53;12.00;23.90
54264;DHT22;40178;53.042;6.406;2022-09-01T03:16:20;12.00;18.80
54264;DHT22;40178;53.042;6.406;2022-09-01T03:18:49;12.00;24.30
54264;DHT22;40178;53.042;6.406;2022-09-01T03:21:15;12.00;19.70
54264;DHT22;40178;53.042;6.406;2022-09-01T03:23:46;12.00;23.10
54264;DHT22;40178;53.042;6.406;2022-09-01T03:26:13;12.10;23.90
54264;DHT22;40178;53.042;6.406;2022-09-01T03:28:39;12.10;19.30
54264;DHT22;40178;53.042;6.406;2022-09-01T03:31:05;12.10;17.70
54264;DHT22;40178;53.042;6.406;2022-09-01T03:33:32;12.00;16.60
54264;DHT22;40178;53.042;6.406;2022-09-01T03:35:58;12.00;34.40
54264;DHT22;40178;53.042;6.406;2022-09-01T03:38:25;12.00;23.10
54264;DHT22;40178;53.042;6.406;2022-09-01T03:40:54;12.00;20.80
54264;DHT22;40178;53.042;6.406;2022-09-01T03:43:23;11.90;20.20
54264;DHT22;40178;53.042;6.406;2022-09-01T03:45:52;11.90;27.60
54264;DHT22;40178;53.042;6.406;2022-09-01T03:48:20;11.90;35.90
54264;DHT22;40178;53.042;6.406;2022-09-01T03:50:45;11.90;36.30
54264;DHT22;40178;53.042;6.406;2022-09-01T03:53:20;11.90;26.00
54264;DHT22;40178;53.042;6.406;2022-09-01T03:55:48;11.80;23.40
54264;DHT22;40178;53.042;6.406;2022-09-01T03:58:16;11.80;24.50
54264;DHT22;40178;53.042;6.406;2022-09-01T04:00:51;11.80;22.70
54264;DHT22;40178;53.042;6.406;2022-09-01T04:03:23;11.80;22.00
54264;DHT22;40178;53.042;6.406;2022-09-01T04:05:51;11.70;21.40
54264;DHT22;40178;53.042;6.406;2022-09-01T04:08:19;11.70;30.50
54264;DHT22;40178;53.042;6.406;2022-09-01T04:10:51;11.70;39.00
54264;DHT22;40178;53.042;6.406;2022-09-01T04:13:20;11.70;44.30
54264;DHT22;40178;53.042;6.406;2022-09-01T04:15:46;11.60;31.20
54264;DHT22;40178;53.042;6.406;2022-09-01T04:18:13;11.60;28.40
54264;DHT22;40178;53.042;6.406;2022-09-01T04:20:56;11.50;33.50
54264;DHT22;40178;53.042;6.406;2022-09-01T04:26:00;11.50;31.30
54264;DHT22;40178;53.042;6.406;2022-09-01T04:28:34;11.40;30.60
54264;DHT22;40178;53.042;6.406;2022-09-01T04:31:04;11.30;37.60
54264;DHT22;40178;53.042;6.406;2022-09-01T04:33:33;11.30;34.90
54264;DHT22;40178;53.042;6.406;2022-09-01T04:36:19;11.30;33.10
54264;DHT22;40178;53.042;6.406;2022-09-01T04:38:51;11.30;36.20
54264;DHT22;40178;53.042;6.406;2022-09-01T04:41:20;11.30;43.70
54264;DHT22;40178;53.042;6.406;2022-09-01T04:43:48;11.30;39.40
54264;DHT22;40178;53.042;6.406;2022-09-01T04:46:16;11.30;37.50
54264;DHT22;40178;53.042;6.406;2022-09-01T04:48:42;11.20;37.60
54264;DHT22;40178;53.042;6.406;2022-09-01T04:51:10;11.20;40.60
54264;DHT22;40178;53.042;6.406;2022-09-01T04:53:37;11.20;41.50
54264;DHT22;40178;53.042;6.406;2022-09-01T04:56:06;11.20;39.60
54264;DHT22;40178;53.042;6.406;2022-09-01T04:58:32;11.20;40.90
54264;DHT22;40178;53.042;6.406;2022-09-01T05:00:58;11.20;50.40
54264;DHT22;40178;53.042;6.406;2022-09-01T05:03:25;11.20;41.60
54264;DHT22;40178;53.042;6.406;2022-09-01T05:05:51;11.20;47.40
54264;DHT22;40178;53.042;6.406;2022-09-01T05:08:20;11.20;60.10
54264;DHT22;40178;53.042;6.406;2022-09-01T05:10:49;11.20;51.50
54264;DHT22;40178;53.042;6.406;2022-09-01T05:13:18;11.20;49.70
54264;DHT22;40178;53.042;6.406;2022-09-01T05:15:45;11.20;50.60
54264;DHT22;40178;53.042;6.406;2022-09-01T05:18:16;11.20;49.30
54264;DHT22;40178;53.042;6.406;2022-09-01T05:20:48;11.20;60.90
54264;DHT22;40178;53.042;6.406;2022-09-01T05:23:15;11.30;53.70
54264;DHT22;40178;53.042;6.406;2022-09-01T05:25:46;11.30;53.90
54264;DHT22;40178;53.042;6.406;2022-09-01T05:28:14;11.30;53.80
54264;DHT22;40178;53.042;6.406;2022-09-01T05:30:42;11.40;58.10
54264;DHT22;40178;53.042;6.406;2022-09-01T05:33:08;11.40;62.60
54264;DHT22;40178;53.042;6.406;2022-09-01T05:35:53;11.50;58.20
54264;DHT22;40178;53.042;6.406;2022-09-01T05:38:19;11.60;55.50
54264;DHT22;40178;53.042;6.406;2022-09-01T05:40:54;11.50;54.00
54264;DHT22;40178;53.042;6.406;2022-09-01T05:43:22;11.60;54.40
54264;DHT22;40178;53.042;6.406;2022-09-01T05:45:48;11.70;63.50
54264;DHT22;40178;53.042;6.406;2022-09-01T05:48:14;11.80;52.90
54264;DHT22;40178;53.042;6.406;2022-09-01T05:50:46;11.80;52.30
54264;DHT22;40178;53.042;6.406;2022-09-01T05:53:14;11.80;60.80
54264;DHT22;40178;53.042;6.406;2022-09-01T05:55:46;11.90;56.10
54264;DHT22;40178;53.042;6.406;2022-09-01T05:58:14;12.00;59.50
54264;DHT22;40178;53.042;6.406;2022-09-01T06:00:45;12.10;54.40
54264;DHT22;40178;53.042;6.406;2022-09-01T06:03:14;12.20;53.90
54264;DHT22;40178;53.042;6.406;2022-09-01T06:05:41;12.30;51.20
54264;DHT22;40178;53.042;6.406;2022-09-01T06:08:08;12.40;50.80
54264;DHT22;40178;53.042;6.406;2022-09-01T06:10:38;12.50;56.90
54264;DHT22;40178;53.042;6.406;2022-09-01T06:13:07;12.60;55.90
54264;DHT22;40178;53.042;6.406;2022-09-01T06:15:34;12.60;46.60
54264;DHT22;40178;53.042;6.406;2022-09-01T06:18:07;12.70;48.50
54264;DHT22;40178;53.042;6.406;2022-09-01T06:20:33;12.70;43.70
54264;DHT22;40178;53.042;6.406;2022-09-01T06:23:02;12.70;44.80
54264;DHT22;40178;53.042;6.406;2022-09-01T06:25:28;12.70;48.10
54264;DHT22;40178;53.042;6.406;2022-09-01T06:27:55;12.70;42.10
54264;DHT22;40178;53.042;6.406;2022-09-01T06:30:21;12.80;46.90
54264;DHT22;40178;53.042;6.406;2022-09-01T06:32:52;12.90;44.70
54264;DHT22;40178;53.042;6.406;2022-09-01T06:35:18;13.00;46.40
54264;DHT22;40178;53.042;6.406;2022-09-01T06:37:45;13.10;41.90
54264;DHT22;40178;53.042;6.406;2022-09-01T06:40:14;13.40;40.30
54264;DHT22;40178;53.042;6.406;2022-09-01T06:42:45;13.50;35.70
54264;DHT22;40178;53.042;6.406;2022-09-01T06:45:15;13.80;29.60
54264;DHT22;40178;53.042;6.406;2022-09-01T06:47:43;14.00;23.20
54264;DHT22;40178;53.042;6.406;2022-09-01T06:50:15;14.20;15.00
54264;DHT22;40178;53.042;6.406;2022-09-01T06:52:41;14.40;2.90
54264;DHT22;40178;53.042;6.406;2022-09-01T06:55:09;14.60;1.00
54264;DHT22;40178;53.042;6.406;2022-09-01T06:57:36;14.70;1.00
54264;DHT22;40178;53.042;6.406;2022-09-01T07:00:07;14.90;1.00
54264;DHT22;40178;53.042;6.406;2022-09-01T07:02:46;14.90;1.00
54264;DHT22;40178;53.042;6.406;2022-09-01T07:05:13;15.10;1.00
54264;DHT22;40178;53.042;6.406;2022-09-01T07:07:49;15.20;1.00
54264;DHT22;40178;53.042;6.406;2022-09-01T07:10:17;15.40;1.00
54264;DHT22;40178;53.042;6.406;2022-09-01T07:12:51;15.50;1.00
54264;DHT22;40178;53.042;6.406;2022-09-01T07:15:17;15.70;1.00
54264;DHT22;40178;53.042;6.406;2022-09-01T07:17:50;15.80;1.00
54264;DHT22;40178;53.042;6.406;2022-09-01T07:20:18;15.90;1.00
54264;DHT22;40178;53.042;6.406;2022-09-01T07:22:49;16.00;1.00
54264;DHT22;40178;53.042;6.406;2022-09-01T07:25:15;16.10;1.00
54264;DHT22;40178;53.042;6.406;2022-09-01T07:27:43;16.10;1.00
54264;DHT22;40178;53.042;6.406;2022-09-01T07:30:18;16.20;1.00
54264;DHT22;40178;53.042;6.406;2022-09-01T07:32:45;16.20;1.00
54264;DHT22;40178;53.042;6.406;2022-09-01T07:35:14;16.30;1.00
54264;DHT22;40178;53.042;6.406;2022-09-01T07:37:40;16.40;1.00
54264;DHT22;40178;53.042;6.406;2022-09-01T07:40:08;16.50;1.00
54264;DHT22;40178;53.042;6.406;2022-09-01T07:42:35;16.60;1.00
54264;DHT22;40178;53.042;6.406;2022-09-01T07:45:04;16.60;99.90
54264;DHT22;40178;53.042;6.406;2022-09-01T07:47:33;16.70;99.90
54264;DHT22;40178;53.042;6.406;2022-09-01T07:50:03;16.80;99.90
54264;DHT22;40178;53.042;6.406;2022-09-01T07:52:37;16.90;99.90
54264;DHT22;40178;53.042;6.406;2022-09-01T07:55:16;17.00;99.90
54264;DHT22;40178;53.042;6.406;2022-09-01T07:57:43;17.10;99.90
54264;DHT22;40178;53.042;6.406;2022-09-01T08:00:14;17.20;99.90
54264;DHT22;40178;53.042;6.406;2022-09-01T08:02:43;17.30;99.90
54264;DHT22;40178;53.042;6.406;2022-09-01T08:05:12;17.40;99.90
54264;DHT22;40178;53.042;6.406;2022-09-01T08:07:38;17.50;99.90
54264;DHT22;40178;53.042;6.406;2022-09-01T08:10:06;17.70;99.90
54264;DHT22;40178;53.042;6.406;2022-09-01T08:12:32;17.80;99.90
54264;DHT22;40178;53.042;6.406;2022-09-01T08:14:57;17.90;99.90
54264;DHT22;40178;53.042;6.406;2022-09-01T08:17:23;17.90;90.60
54264;DHT22;40178;53.042;6.406;2022-09-01T08:19:49;18.00;40.50
54264;DHT22;40178;53.042;6.406;2022-09-01T08:22:15;18.10;99.90
54264;DHT22;40178;53.042;6.406;2022-09-01T08:24:41;18.20;1.00
54264;DHT22;40178;53.042;6.406;2022-09-01T08:27:07;18.30;99.90
54264;DHT22;40178;53.042;6.406;2022-09-01T08:29:33;18.30;99.90
54264;DHT22;40178;53.042;6.406;2022-09-01T08:31:59;18.40;99.90
54264;DHT22;40178;53.042;6.406;2022-09-01T08:34:25;18.50;99.90
54264;DHT22;40178;53.042;6.406;2022-09-01T08:36:51;18.50;1.00
54264;DHT22;40178;53.042;6.406;2022-09-01T08:39:17;18.50;1.00
54264;DHT22;40178;53.042;6.406;2022-09-01T08:41:51;18.50;1.00
54264;DHT22;40178;53.042;6.406;2022-09-01T08:46:53;18.80;1.00
54264;DHT22;40178;53.042;6.406;2022-09-01T08:49:23;18.90;1.00
54264;DHT22;40178;53.042;6.406;2022-09-01T08:52:21;19.00;1.00
54264;DHT22;40178;53.042;6.406;2022-09-01T08:55:00;19.10;92.10
54264;DHT22;40178;53.042;6.406;2022-09-01T08:57:35;19.20;33.70
54264;DHT22;40178;53.042;6.406;2022-09-01T09:00:05;19.30;1.00
54264;DHT22;40178;53.042;6.406;2022-09-01T09:05:34;19.50;1.00
54264;DHT22;40178;53.042;6.406;2022-09-01T09:13:34;19.80;99.90
54264;DHT22;40178;53.042;6.406;2022-09-01T09:16:22;20.00;99.90
54264;DHT22;40178;53.042;6.406;2022-09-01T09:18:51;20.00;95.90
54264;DHT22;40178;53.042;6.406;2022-09-01T09:23:56;20.20;1.00
54264;DHT22;40178;53.042;6.406;2022-09-01T09:26:23;20.30;99.90
54264;DHT22;40178;53.042;6.406;2022-09-01T09:28:49;20.30;83.30
54264;DHT22;40178;53.042;6.406;2022-09-01T09:31:34;20.40;1.00
54264;DHT22;40178;53.042;6.406;2022-09-01T09:34:03;20.50;99.90
54264;DHT22;40178;53.042;6.406;2022-09-01T09:36:40;20.60;99.90
54264;DHT22;40178;53.042;6.406;2022-09-01T09:39:10;20.80;99.90
54264;DHT22;40178;53.042;6.406;2022-09-01T09:41:39;20.80;99.90
54264;DHT22;40178;53.042;6.406;2022-09-01T09:44:16;20.90;99.90
54264;DHT22;40178;53.042;6.406;2022-09-01T09:46:44;21.00;99.90
54264;DHT22;40178;53.042;6.406;2022-09-01T09:49:21;21.20;99.90
54264;DHT22;40178;53.042;6.406;2022-09-01T09:54:30;21.40;1.00
54264;DHT22;40178;53.042;6.406;2022-09-01T09:57:11;21.70;99.90
54264;DHT22;40178;53.042;6.406;2022-09-01T09:59:59;21.40;99.90
54264;DHT22;40178;53.042;6.406;2022-09-01T10:04:59;21.60;99.90
54264;DHT22;40178;53.042;6.406;2022-09-01T10:07:35;21.60;99.90
54264;DHT22;40178;53.042;6.406;2022-09-01T10:10:06;21.40;99.90
54264;DHT22;40178;53.042;6.406;2022-09-01T10:12:32;21.30;99.90
54264;DHT22;40178;53.042;6.406;2022-09-01T10:15:08;21.40;99.90
54264;DHT22;40178;53.042;6.406;2022-09-01T10:17:38;21.50;82.40
54264;DHT22;40178;53.042;6.406;2022-09-01T10:20:17;21.60;41.70
54264;DHT22;40178;53.042;6.406;2022-09-01T10:22:46;21.80;1.00
54264;DHT22;40178;53.042;6.406;2022-09-01T10:25:19;22.00;2.30
54264;DHT22;40178;53.042;6.406;2022-09-01T10:27:55;22.20;1.00
54264;DHT22;40178;53.042;6.406;2022-09-01T10:30:22;22.40;1.00
54264;DHT22;40178;53.042;6.406;2022-09-01T10:32:54;22.70;99.90
54264;DHT22;40178;53.042;6.406;2022-09-01T10:35:32;22.80;99.90
54264;DHT22;40178;53.042;6.406;2022-09-01T10:38:03;22.90;99.90
54264;DHT22;40178;53.042;6.406;2022-09-01T10:40:41;23.00;99.90
54264;DHT22;40178;53.042;6.406;2022-09-01T10:48:45;23.10;99.90
54264;DHT22;40178;53.042;6.406;2022-09-01T10:53:50;23.20;99.90
54264;DHT22;40178;53.042;6.406;2022-09-01T10:59:08;23.60;99.90
54264;DHT22;40178;53.042;6.406;2022-09-01T11:09:36;23.80;99.90
54264;DHT22;40178;53.042;6.406;2022-09-01T11:14:52;23.80;97.70
54264;DHT22;40178;53.042;6.406;2022-09-01T11:17:32;23.70;57.50
54264;DHT22;40178;53.042;6.406;2022-09-01T11:20:08;23.90;64.20
54264;DHT22;40178;53.042;6.406;2022-09-01T11:22:40;24.00;43.70
54264;DHT22;40178;53.042;6.406;2022-09-01T11:25:34;23.90;29.70
54264;DHT22;40178;53.042;6.406;2022-09-01T11:30:59;23.40;21.40
54264;DHT22;40178;53.042;6.406;2022-09-01T11:36:05;23.50;9.00
54264;DHT22;40178;53.042;6.406;2022-09-01T11:38:45;23.40;15.70
54264;DHT22;40178;53.042;6.406;2022-09-01T11:41:23;23.30;1.00
54264;DHT22;40178;53.042;6.406;2022-09-01T11:43:52;23.40;1.00
54264;DHT22;40178;53.042;6.406;2022-09-01T11:46:26;23.20;6.00
54264;DHT22;40178;53.042;6.406;2022-09-01T11:48:52;23.10;4.40
54264;DHT22;40178;53.042;6.406;2022-09-01T11:51:19;23.10;1.90
54264;DHT22;40178;53.042;6.406;2022-09-01T11:53:46;23.00;1.00
54264;DHT22;40178;53.042;6.406;2022-09-01T11:56:17;22.80;1.00
54264;DHT22;40178;53.042;6.406;2022-09-01T11:58:43;23.10;1.00
54264;DHT22;40178;53.042;6.406;2022-09-01T12:01:15;23.00;1.00
54264;DHT22;40178;53.042;6.406;2022-09-01T12:03:42;22.90;1.00
54264;DHT22;40178;53.042;6.406;2022-09-01T12:06:10;22.50;1.00
54264;DHT22;40178;53.042;6.406;2022-09-01T12:08:39;22.50;1.00
54264;DHT22;40178;53.042;6.406;2022-09-01T12:11:11;22.70;1.00
54264;DHT22;40178;53.042;6.406;2022-09-01T12:13:39;23.20;1.00
54264;DHT22;40178;53.042;6.406;2022-09-01T12:16:08;23.10;1.00
54264;DHT22;40178;53.042;6.406;2022-09-01T12:18:36;23.30;1.00
54264;DHT22;40178;53.042;6.406;2022-09-01T12:21:06;23.50;1.00
54264;DHT22;40178;53.042;6.406;2022-09-01T12:23:35;23.60;1.00
54264;DHT22;40178;53.042;6.406;2022-09-01T12:26:12;23.90;1.00
54264;DHT22;40178;53.042;6.406;2022-09-01T12:28:38;23.90;1.00
54264;DHT22;40178;53.042;6.406;2022-09-01T12:31:14;24.00;1.00
54264;DHT22;40178;53.042;6.406;2022-09-01T12:33:42;24.10;1.00
54264;DHT22;40178;53.042;6.406;2022-09-01T12:36:24;23.80;1.00
54264;DHT22;40178;53.042;6.406;2022-09-01T12:38:52;23.60;1.00
54264;DHT22;40178;53.042;6.406;2022-09-01T12:41:38;23.30;1.00
54264;DHT22;40178;53.042;6.406;2022-09-01T12:44:30;23.20;1.00
54264;DHT22;40178;53.042;6.406;2022-09-01T12:47:02;23.30;1.00
54264;DHT22;40178;53.042;6.406;2022-09-01T12:49:37;23.00;1.00
54264;DHT22;40178;53.042;6.406;2022-09-01T12:52:10;22.80;1.00
54264;DHT22;40178;53.042;6.406;2022-09-01T12:54:37;22.80;1.00
54264;DHT22;40178;53.042;6.406;2022-09-01T12:57:03;22.80;1.00
54264;DHT22;40178;53.042;6.406;2022-09-01T12:59:29;22.90;1.00
54264;DHT22;40178;53.042;6.406;2022-09-01T13:01:57;23.10;1.00
54264;DHT22;40178;53.042;6.406;2022-09-01T13:04:40;23.10;1.00
54264;DHT22;40178;53.042;6.406;2022-09-01T13:07:06;22.90;1.00
54264;DHT22;40178;53.042;6.406;2022-09-01T13:09:32;22.80;1.00
54264;DHT22;40178;53.042;6.406;2022-09-01T13:12:30;22.90;1.00
54264;DHT22;40178;53.042;6.406;2022-09-01T13:14:56;23.20;1.00
54264;DHT22;40178;53.042;6.406;2022-09-01T13:17:21;23.20;1.00
54264;DHT22;40178;53.042;6.406;2022-09-01T13:19:48;23.10;1.00
54264;DHT22;40178;53.042;6.406;2022-09-01T13:22:13;23.20;1.00
54264;DHT22;40178;53.042;6.406;2022-09-01T13:24:39;23.10;1.00
54264;DHT22;40178;53.042;6.406;2022-09-01T13:27:05;22.90;1.00
54264;DHT22;40178;53.042;6.406;2022-09-01T13:29:31;22.90;1.00
54264;DHT22;40178;53.042;6.406;2022-09-01T13:31:57;23.40;1.00
54264;DHT22;40178;53.042;6.406;2022-09-01T13:34:22;23.50;1.00
54264;DHT22;40178;53.042;6.406;2022-09-01T13:36:48;23.70;1.00
54264;DHT22;40178;53.042;6.406;2022-09-01T13:39:13;23.70;1.00
54264;DHT22;40178;53.042;6.406;2022-09-01T13:41:39;23.70;1.00
54264;DHT22;40178;53.042;6.406;2022-09-01T13:44:05;23.70;1.00
54264;DHT22;40178;53.042;6.406;2022-09-01T13:46:30;23.70;1.00
54264;DHT22;40178;53.042;6.406;2022-09-01T13:48:56;23.20;1.00
54264;DHT22;40178;53.042;6.406;2022-09-01T13:51:26;23.30;1.00
54264;DHT22;40178;53.042;6.406;2022-09-01T13:53:52;23.20;1.00
54264;DHT22;40178;53.042;6.406;2022-09-01T13:56:18;23.00;1.00
54264;DHT22;40178;53.042;6.406;2022-09-01T13:58:44;23.10;1.00
54264;DHT22;40178;53.042;6.406;2022-09-01T14:01:10;23.40;1.00
54264;DHT22;40178;53.042;6.406;2022-09-01T14:03:36;23.80;1.00
54264;DHT22;40178;53.042;6.406;2022-09-01T14:06:02;24.10;1.00
54264;DHT22;40178;53.042;6.406;2022-09-01T14:08:28;24.20;1.00
54264;DHT22;40178;53.042;6.406;2022-09-01T14:10:54;24.10;1.00
54264;DHT22;40178;53.042;6.406;2022-09-01T14:13:22;23.80;1.00
54264;DHT22;40178;53.042;6.406;2022-09-01T14:15:48;23.90;1.00
54264;DHT22;40178;53.042;6.406;2022-09-01T14:18:17;24.30;1.00
54264;DHT22;40178;53.042;6.406;2022-09-01T14:20:48;24.40;1.00
54264;DHT22;40178;53.042;6.406;2022-09-01T14:23:15;24.80;1.00
54264;DHT22;40178;53.042;6.406;2022-09-01T14:25:47;25.00;1.00
54264;DHT22;40178;53.042;6.406;2022-09-01T14:28:13;25.10;1.00
54264;DHT22;40178;53.042;6.406;2022-09-01T14:30:40;24.90;1.00
54264;DHT22;40178;53.042;6.406;2022-09-01T14:33:08;24.80;1.00
54264;DHT22;40178;53.042;6.406;2022-09-01T14:35:40;25.00;1.00
54264;DHT22;40178;53.042;6.406;2022-09-01T14:38:07;24.90;1.00
54264;DHT22;40178;53.042;6.406;2022-09-01T14:40:34;24.90;1.00
54264;DHT22;40178;53.042;6.406;2022-09-01T14:43:02;25.30;1.00
54264;DHT22;40178;53.042;6.406;2022-09-01T14:45:29;25.80;1.00
54264;DHT22;40178;53.042;6.406;2022-09-01T14:47:57;26.00;1.00
54264;DHT22;40178;53.042;6.406;2022-09-01T14:50:26;25.70;1.00
54264;DHT22;40178;53.042;6.406;2022-09-01T14:52:55;25.50;1.00
54264;DHT22;40178;53.042;6.406;2022-09-01T14:55:24;25.00;1.00
54264;DHT22;40178;53.042;6.406;2022-09-01T14:57:51;24.90;1.00
54264;DHT22;40178;53.042;6.406;2022-09-01T15:00:18;24.90;1.00
54264;DHT22;40178;53.042;6.406;2022-09-01T15:02:44;25.10;1.00
54264;DHT22;40178;53.042;6.406;2022-09-01T15:05:11;25.50;1.00
54264;DHT22;40178;53.042;6.406;2022-09-01T15:07:38;25.70;1.00
54264;DHT22;40178;53.042;6.406;2022-09-01T15:10:07;26.20;1.00
54264;DHT22;40178;53.042;6.406;2022-09-01T15:12:33;26.20;1.00
54264;DHT22;40178;53.042;6.406;2022-09-01T15:15:00;26.70;1.00
54264;DHT22;40178;53.042;6.406;2022-09-01T15:17:27;26.90;1.00
54264;DHT22;40178;53.042;6.406;2022-09-01T15:19:53;27.20;1.00
54264;DHT22;40178;53.042;6.406;2022-09-01T15:22:19;27.30;1.00
54264;DHT22;40178;53.042;6.406;2022-09-01T15:24:45;28.10;1.00
54264;DHT22;40178;53.042;6.406;2022-09-01T15:30:52;28.10;99.90
54264;DHT22;40178;53.042;6.406;2022-09-01T15:33:19;28.40;99.90
54264;DHT22;40178;53.042;6.406;2022-09-01T15:35:45;28.30;99.90
54264;DHT22;40178;53.042;6.406;2022-09-01T15:38:12;27.70;99.90
54264;DHT22;40178;53.042;6.406;2022-09-01T15:40:39;27.20;99.90
54264;DHT22;40178;53.042;6.406;2022-09-01T15:43:06;26.80;99.90
54264;DHT22;40178;53.042;6.406;2022-09-01T15:45:32;26.20;99.90
54264;DHT22;40178;53.042;6.406;2022-09-01T15:47:58;25.90;99.90
54264;DHT22;40178;53.042;6.406;2022-09-01T15:50:24;25.60;99.90
54264;DHT22;40178;53.042;6.406;2022-09-01T15:52:56;25.50;99.90
54264;DHT22;40178;53.042;6.406;2022-09-01T15:55:26;25.30;99.90
54264;DHT22;40178;53.042;6.406;2022-09-01T15:57:52;25.00;99.90
54264;DHT22;40178;53.042;6.406;2022-09-01T16:00:21;24.90;99.90
54264;DHT22;40178;53.042;6.406;2022-09-01T16:02:47;24.70;99.90
54264;DHT22;40178;53.042;6.406;2022-09-01T16:05:13;24.60;99.90
54264;DHT22;40178;53.042;6.406;2022-09-01T16:07:40;24.40;99.90
54264;DHT22;40178;53.042;6.406;2022-09-01T16:10:07;24.30;99.90
54264;DHT22;40178;53.042;6.406;2022-09-01T16:12:37;24.20;99.90
54264;DHT22;40178;53.042;6.406;2022-09-01T16:15:04;23.90;99.90
54264;DHT22;40178;53.042;6.406;2022-09-01T16:20:28;23.50;99.90
54264;DHT22;40178;53.042;6.406;2022-09-01T16:23:08;23.30;99.90
54264;DHT22;40178;53.042;6.406;2022-09-01T16:25:35;23.00;99.90
54264;DHT22;40178;53.042;6.406;2022-09-01T16:28:04;22.90;99.90
54264;DHT22;40178;53.042;6.406;2022-09-01T16:30:32;22.90;99.90
54264;DHT22;40178;53.042;6.406;2022-09-01T16:33:02;22.80;99.90
54264;DHT22;40178;53.042;6.406;2022-09-01T16:35:44;22.80;99.90
54264;DHT22;40178;53.042;6.406;2022-09-01T16:38:33;22.80;99.90
54264;DHT22;40178;53.042;6.406;2022-09-01T16:41:43;22.80;99.90
54264;DHT22;40178;53.042;6.406;2022-09-01T16:47:23;22.70;99.90
54264;DHT22;40178;53.042;6.406;2022-09-01T16:52:35;22.70;99.90